Norway, Kansas
Current Conditions -  °F | °C
As of 10:55 PM on Tuesday 25 Nov 2014 (Local Time) from KCNK Reporting Station
Broken Clouds Broken Clouds  
Wind Chill:   Ceiling: 10000
Heat Index:   Visibility: 10mi
Dew Point: -3°   Wind: 14mph
Humidity: 53%   Direction: 200°SSW
Pressure: 29.88"   Gusts: NA
Location:  39.7°N, 97.77°W
Report Text: KCNK 260455Z AUTO 20012KT 10SM BKN100 06/M03 A2988 RMK AO2 SLP126 T00611028
Loading
Personal Weather Stations






























Interactive Weather Map New forecast layout! Learn more

10-Day Weather Forecast

Advertisements
Track Severe Weather on mobile